createdAt,value
2023-03-06T00:00:19.770Z,3.66
2023-03-06T00:02:46.944Z,3.70
2023-03-06T00:05:15.243Z,3.62
2023-03-06T00:07:42.807Z,3.49
2023-03-06T00:10:18.096Z,3.56
2023-03-06T00:12:45.229Z,3.62
2023-03-06T00:15:13.282Z,3.67
2023-03-06T00:17:41.334Z,3.59
2023-03-06T00:20:10.646Z,3.58
2023-03-06T00:22:37.988Z,3.55
2023-03-06T00:25:06.181Z,3.47
2023-03-06T00:27:33.614Z,3.38
2023-03-06T00:30:01.318Z,3.33
2023-03-06T00:32:28.834Z,3.17
2023-03-06T00:34:56.829Z,2.87
2023-03-06T00:37:25.349Z,2.96
2023-03-06T00:39:52.553Z,3.00
2023-03-06T00:42:20.130Z,2.95
2023-03-06T00:44:47.469Z,2.95
2023-03-06T00:47:17.437Z,2.98
2023-03-06T00:49:45.542Z,3.03
2023-03-06T00:52:13.793Z,2.96
2023-03-06T00:54:41.409Z,2.67
2023-03-06T00:57:08.763Z,2.31
2023-03-06T00:59:36.029Z,2.14
2023-03-06T01:02:03.550Z,2.14
2023-03-06T01:04:32.007Z,2.25
2023-03-06T01:06:59.283Z,2.32
2023-03-06T01:09:26.353Z,2.34
2023-03-06T01:11:54.311Z,2.35
2023-03-06T01:14:21.689Z,2.29
2023-03-06T01:16:48.890Z,2.20
2023-03-06T01:19:18.021Z,2.03
2023-03-06T01:21:46.065Z,1.89
2023-03-06T01:24:13.072Z,2.11
2023-03-06T01:26:40.093Z,2.07
2023-03-06T01:29:07.112Z,2.09
2023-03-06T01:31:34.576Z,2.22
2023-03-06T01:34:01.807Z,2.29
2023-03-06T01:36:28.810Z,2.15
2023-03-06T01:38:55.796Z,2.30
2023-03-06T01:41:23.005Z,2.14
2023-03-06T01:43:50.206Z,2.14
2023-03-06T01:46:29.388Z,2.14
2023-03-06T01:48:58.161Z,2.06
2023-03-06T01:51:30.380Z,2.03
2023-03-06T01:54:00.932Z,1.91
2023-03-06T01:56:28.938Z,1.76
2023-03-06T01:58:57.308Z,1.86
2023-03-06T02:01:24.524Z,1.86
2023-03-06T02:03:53.139Z,1.91
2023-03-06T02:06:22.040Z,1.82
2023-03-06T02:08:51.862Z,1.84
2023-03-06T02:11:22.126Z,1.83
2023-03-06T02:13:51.809Z,1.82
2023-03-06T02:16:23.994Z,1.82
2023-03-06T02:18:51.955Z,1.84
2023-03-06T02:21:25.691Z,1.90
2023-03-06T02:24:13.659Z,1.84
2023-03-06T02:26:43.551Z,1.92
2023-03-06T02:29:11.213Z,1.63
2023-03-06T02:31:38.428Z,1.64
2023-03-06T02:34:14.850Z,1.67
2023-03-06T02:37:09.734Z,1.39
2023-03-06T02:39:42.409Z,1.28
2023-03-06T02:42:09.760Z,1.21
2023-03-06T02:44:37.019Z,1.28
2023-03-06T02:47:05.124Z,1.32
2023-03-06T02:49:32.126Z,1.29
2023-03-06T02:51:59.180Z,1.29
2023-03-06T02:54:26.318Z,1.09
2023-03-06T02:56:53.345Z,0.93
2023-03-06T02:59:20.306Z,0.94
2023-03-06T03:01:48.010Z,0.86
2023-03-06T03:04:15.148Z,0.68
2023-03-06T03:06:42.730Z,0.59
2023-03-06T03:09:10.613Z,0.68
2023-03-06T03:11:37.903Z,0.78
2023-03-06T03:14:04.958Z,0.88
2023-03-06T03:16:32.114Z,0.88
2023-03-06T03:18:59.330Z,0.89
2023-03-06T03:21:27.034Z,0.93
2023-03-06T03:23:55.453Z,0.89
2023-03-06T03:26:23.175Z,0.85
2023-03-06T03:29:10.973Z,0.77
2023-03-06T03:31:37.981Z,0.70
2023-03-06T03:34:05.107Z,0.43
2023-03-06T03:36:35.671Z,0.41
2023-03-06T03:39:04.350Z,0.54
2023-03-06T03:41:32.376Z,0.62
2023-03-06T03:43:59.630Z,0.70
2023-03-06T03:46:26.894Z,0.85
2023-03-06T03:48:56.010Z,0.94
2023-03-06T03:51:23.344Z,0.84
2023-03-06T03:53:53.877Z,0.89
2023-03-06T03:56:27.628Z,0.91
2023-03-06T03:59:09.853Z,0.95
2023-03-06T04:01:44.865Z,0.98
2023-03-06T04:04:13.063Z,0.99
2023-03-06T04:06:41.660Z,0.81
2023-03-06T04:09:09.050Z,0.72
2023-03-06T04:11:37.095Z,0.70
2023-03-06T04:14:04.257Z,0.64
2023-03-06T04:16:31.818Z,0.68
2023-03-06T04:18:58.843Z,0.64
2023-03-06T04:21:26.079Z,0.57
2023-03-06T04:23:53.100Z,0.40
2023-03-06T04:26:20.631Z,0.54
2023-03-06T04:28:48.059Z,0.54
2023-03-06T04:31:15.778Z,0.31
2023-03-06T04:33:43.373Z,0.31
2023-03-06T04:36:25.186Z,0.17
2023-03-06T04:38:53.313Z,0.32
2023-03-06T04:41:20.514Z,0.34
2023-03-06T04:43:47.657Z,0.55
2023-03-06T04:46:14.801Z,0.60
2023-03-06T04:48:41.897Z,0.37
2023-03-06T04:51:08.997Z,0.41
2023-03-06T04:53:36.135Z,0.43
2023-03-06T04:56:03.138Z,0.35
2023-03-06T04:58:30.206Z,0.41
2023-03-06T05:00:57.286Z,0.17
2023-03-06T05:03:24.242Z,0.26
2023-03-06T05:05:51.258Z,0.21
2023-03-06T05:08:18.484Z,0.34
2023-03-06T05:10:45.832Z,0.34
2023-03-06T05:13:13.331Z,0.31
2023-03-06T05:15:41.135Z,0.29
2023-03-06T05:18:08.299Z,0.50
2023-03-06T05:20:35.285Z,0.42
2023-03-06T05:23:02.282Z,0.55
2023-03-06T05:25:29.294Z,0.69
2023-03-06T05:27:56.344Z,0.78
2023-03-06T05:30:23.533Z,0.68
2023-03-06T05:32:51.038Z,0.52
2023-03-06T05:35:21.247Z,0.44
2023-03-06T05:37:48.868Z,0.46
2023-03-06T05:40:16.887Z,0.62
2023-03-06T05:42:44.112Z,0.83
2023-03-06T05:45:11.966Z,1.01
2023-03-06T05:47:39.112Z,1.11
2023-03-06T05:50:08.419Z,1.01
2023-03-06T05:52:35.419Z,0.98
2023-03-06T05:55:02.480Z,1.07
2023-03-06T05:57:29.454Z,1.02
2023-03-06T05:59:56.533Z,1.06
2023-03-06T06:02:23.659Z,1.19
2023-03-06T06:04:50.740Z,1.33
2023-03-06T06:07:17.894Z,1.36
2023-03-06T06:09:48.202Z,1.22
2023-03-06T06:12:15.230Z,1.27
2023-03-06T06:14:42.259Z,1.38
2023-03-06T06:17:09.555Z,0.98
2023-03-06T06:19:36.582Z,1.10
2023-03-06T06:22:04.064Z,1.15
2023-03-06T06:24:32.069Z,1.24
2023-03-06T06:27:03.286Z,1.48
2023-03-06T06:29:31.307Z,1.64
2023-03-06T06:31:58.918Z,1.80
2023-03-06T06:34:26.350Z,1.85
2023-03-06T06:36:54.700Z,1.74
2023-03-06T06:39:23.203Z,1.94
2023-03-06T06:42:02.608Z,2.20
2023-03-06T06:44:37.460Z,2.42
2023-03-06T06:47:24.234Z,2.51
2023-03-06T06:49:53.649Z,2.42
2023-03-06T06:52:21.011Z,2.43
2023-03-06T06:54:48.185Z,1.96
2023-03-06T06:57:16.071Z,2.35
2023-03-06T06:59:43.493Z,2.58
2023-03-06T07:02:16.024Z,2.90
2023-03-06T07:05:00.764Z,3.15
2023-03-06T07:07:31.211Z,3.33
2023-03-06T07:10:00.070Z,3.41
2023-03-06T07:12:27.453Z,3.42
2023-03-06T07:14:54.415Z,3.61
2023-03-06T07:17:21.953Z,3.90
2023-03-06T07:19:49.014Z,3.92
2023-03-06T07:22:16.514Z,4.47
2023-03-06T07:24:43.753Z,4.95
2023-03-06T07:27:14.857Z,5.32
2023-03-06T07:29:45.475Z,5.34
2023-03-06T07:32:12.734Z,4.81
2023-03-06T07:34:39.939Z,5.24
2023-03-06T07:37:08.660Z,5.50
2023-03-06T07:39:35.684Z,5.95
2023-03-06T07:42:03.008Z,6.19
2023-03-06T07:44:30.206Z,6.47
2023-03-06T07:46:57.466Z,6.73
2023-03-06T07:49:24.397Z,6.97
2023-03-06T07:51:51.809Z,6.93
2023-03-06T07:54:18.797Z,7.17
2023-03-06T07:56:46.064Z,7.45
2023-03-06T07:59:13.368Z,7.15
2023-03-06T08:01:40.603Z,6.77
2023-03-06T08:04:07.642Z,7.20
2023-03-06T08:06:35.311Z,7.19
2023-03-06T08:09:02.468Z,7.35
2023-03-06T08:11:31.107Z,7.17
2023-03-06T08:13:59.284Z,7.36
2023-03-06T08:16:31.922Z,7.65
2023-03-06T08:18:59.183Z,7.96
2023-03-06T08:21:28.038Z,8.22
2023-03-06T08:23:55.392Z,8.27
2023-03-06T08:26:27.965Z,8.17
2023-03-06T08:28:56.940Z,8.35
2023-03-06T08:31:34.619Z,8.38
2023-03-06T08:34:04.889Z,8.46
2023-03-06T08:36:32.089Z,8.64
2023-03-06T08:38:59.830Z,9.05
2023-03-06T08:41:27.770Z,9.30
2023-03-06T08:43:54.974Z,9.50
2023-03-06T08:46:23.750Z,9.54
2023-03-06T08:48:50.815Z,9.25
2023-03-06T08:51:19.012Z,9.34
2023-03-06T08:53:46.776Z,9.48
2023-03-06T08:56:28.285Z,9.64
2023-03-06T08:58:58.062Z,9.73
2023-03-06T09:01:31.128Z,9.55
2023-03-06T09:04:01.625Z,9.58
2023-03-06T09:06:32.811Z,9.49
2023-03-06T09:09:00.458Z,9.31
2023-03-06T09:11:28.681Z,9.28
2023-03-06T09:13:56.702Z,9.32
2023-03-06T09:16:24.605Z,9.47
2023-03-06T09:18:54.642Z,9.55
2023-03-06T09:21:23.207Z,9.65
2023-03-06T09:23:51.295Z,9.96
2023-03-06T09:26:19.138Z,10.24
2023-03-06T09:28:46.973Z,10.35
2023-03-06T09:31:20.144Z,10.29
2023-03-06T09:33:48.438Z,10.50
2023-03-06T09:36:19.101Z,10.54
2023-03-06T09:38:48.070Z,10.48
2023-03-06T09:41:27.075Z,10.42
2023-03-06T09:44:04.907Z,10.10
2023-03-06T09:46:42.545Z,10.51
2023-03-06T09:49:23.317Z,10.95
2023-03-06T09:51:59.454Z,11.31
2023-03-06T09:54:52.462Z,11.07
2023-03-06T09:57:29.264Z,11.03
2023-03-06T09:59:59.953Z,11.10
2023-03-06T10:02:37.903Z,10.98
2023-03-06T10:05:12.608Z,11.05
2023-03-06T10:08:26.283Z,11.20
2023-03-06T10:11:02.606Z,11.10
2023-03-06T10:13:38.726Z,10.52
2023-03-06T10:16:41.917Z,10.62
2023-03-06T10:19:18.206Z,10.50
2023-03-06T10:22:01.311Z,10.04
2023-03-06T10:24:40.469Z,10.22
2023-03-06T10:27:19.046Z,10.67
2023-03-06T10:30:01.519Z,11.30
2023-03-06T10:32:49.463Z,11.77
2023-03-06T10:35:22.510Z,12.10
2023-03-06T10:37:49.849Z,12.30
2023-03-06T10:40:21.214Z,12.39
2023-03-06T10:42:50.674Z,12.41
2023-03-06T10:45:20.977Z,12.13
2023-03-06T10:47:48.153Z,12.21
2023-03-06T10:50:28.047Z,12.29
2023-03-06T10:53:16.708Z,12.34
2023-03-06T10:55:52.842Z,12.48
2023-03-06T10:58:30.169Z,12.59
2023-03-06T11:01:07.158Z,12.51
2023-03-06T11:03:36.837Z,12.60
2023-03-06T11:06:12.999Z,12.03
2023-03-06T11:08:42.958Z,12.03
2023-03-06T11:11:36.908Z,12.38
2023-03-06T11:14:16.545Z,12.57
2023-03-06T11:16:54.685Z,12.77
2023-03-06T11:19:29.020Z,13.19
2023-03-06T11:22:06.034Z,12.92
2023-03-06T11:24:43.273Z,12.74
2023-03-06T11:27:38.425Z,12.25
2023-03-06T11:30:18.429Z,13.05
2023-03-06T11:32:54.222Z,13.29
2023-03-06T11:35:26.864Z,13.08
2023-03-06T11:37:58.688Z,13.44
2023-03-06T11:40:32.270Z,13.54
2023-03-06T11:43:41.260Z,13.45
2023-03-06T11:46:22.599Z,13.40
2023-03-06T11:49:13.471Z,13.56
2023-03-06T11:51:51.968Z,13.41
2023-03-06T11:54:19.071Z,13.48
2023-03-06T11:56:48.641Z,13.61
2023-03-06T11:59:23.511Z,13.54
2023-03-06T12:02:32.935Z,13.40
2023-03-06T12:05:09.130Z,13.70
2023-03-06T12:07:48.037Z,13.92
2023-03-06T12:10:35.941Z,13.88
2023-03-06T12:13:28.022Z,13.25
2023-03-06T12:16:01.369Z,13.57
2023-03-06T12:19:02.571Z,14.35
2023-03-06T12:22:11.032Z,13.89
2023-03-06T12:24:53.534Z,15.05
2023-03-06T12:27:27.501Z,15.90
2023-03-06T12:30:15.757Z,16.58
2023-03-06T12:33:07.748Z,16.75
2023-03-06T12:36:11.675Z,17.25
2023-03-06T12:38:52.748Z,17.06
2023-03-06T12:41:41.430Z,16.99
2023-03-06T12:44:39.767Z,16.89
2023-03-06T12:47:14.003Z,16.94
2023-03-06T12:49:46.412Z,16.88
2023-03-06T12:52:30.170Z,16.69
2023-03-06T12:55:06.470Z,16.55
2023-03-06T12:57:33.933Z,16.17
2023-03-06T13:00:01.026Z,15.54
2023-03-06T13:02:31.672Z,14.80
2023-03-06T13:05:24.250Z,14.44
2023-03-06T13:08:13.770Z,14.80
2023-03-06T13:10:43.809Z,14.27
2023-03-06T13:13:43.337Z,14.47
2023-03-06T13:16:14.221Z,14.74
2023-03-06T13:18:41.233Z,14.68
2023-03-06T13:21:42.622Z,14.56
2023-03-06T13:24:37.399Z,14.46
2023-03-06T13:27:09.646Z,14.60
2023-03-06T13:29:36.603Z,14.18
2023-03-06T13:32:03.637Z,13.84
2023-03-06T13:34:40.139Z,14.63
2023-03-06T13:37:30.218Z,15.68
2023-03-06T13:39:58.572Z,16.68
2023-03-06T13:42:31.024Z,17.01
2023-03-06T13:45:06.785Z,17.20
2023-03-06T13:48:25.029Z,17.40
2023-03-06T13:50:48.794Z,18.22
2023-03-06T13:53:49.119Z,18.25
2023-03-06T13:56:47.335Z,17.99
2023-03-06T13:59:56.969Z,17.67
2023-03-06T14:03:09.305Z,17.34
2023-03-06T14:05:47.224Z,16.60
2023-03-06T14:08:17.667Z,16.44
2023-03-06T14:10:49.621Z,16.20
2023-03-06T14:13:32.318Z,16.36
2023-03-06T14:16:17.572Z,15.80
2023-03-06T14:18:51.066Z,15.72
2023-03-06T14:21:31.208Z,16.20
2023-03-06T14:24:03.768Z,16.21
2023-03-06T14:26:41.836Z,16.31
2023-03-06T14:29:23.309Z,15.67
2023-03-06T14:31:53.612Z,15.13
2023-03-06T14:34:24.229Z,14.86
2023-03-06T14:36:56.461Z,14.24
2023-03-06T14:39:32.411Z,13.98
2023-03-06T14:42:24.930Z,14.17
2023-03-06T14:45:18.884Z,14.15
2023-03-06T14:47:53.441Z,14.04
2023-03-06T14:50:28.064Z,13.42
2023-03-06T14:53:03.257Z,13.41
2023-03-06T14:55:35.203Z,13.19
2023-03-06T14:58:12.303Z,13.13
2023-03-06T15:00:46.641Z,13.03
2023-03-06T15:03:42.980Z,13.09
2023-03-06T15:06:33.447Z,12.85
2023-03-06T15:09:00.532Z,12.67
2023-03-06T15:11:41.634Z,12.61
2023-03-06T15:14:18.912Z,12.54
2023-03-06T15:16:46.023Z,12.35
2023-03-06T15:19:39.887Z,12.16
2023-03-06T15:22:20.906Z,11.97
2023-03-06T15:24:47.990Z,11.94
2023-03-06T15:27:20.229Z,11.88
2023-03-06T15:29:47.249Z,11.81
2023-03-06T15:32:36.006Z,11.71
2023-03-06T15:35:24.540Z,11.73
2023-03-06T15:37:52.261Z,11.70
2023-03-06T15:40:24.697Z,11.74
2023-03-06T15:42:52.248Z,11.64
2023-03-06T15:45:22.078Z,11.44
2023-03-06T15:47:50.816Z,11.47
2023-03-06T15:50:23.307Z,11.81
2023-03-06T15:52:51.013Z,11.94
2023-03-06T15:55:21.019Z,11.90
2023-03-06T15:57:52.622Z,12.33
2023-03-06T16:00:32.685Z,12.02
2023-03-06T16:03:00.286Z,11.89
2023-03-06T16:05:28.951Z,11.79
2023-03-06T16:07:56.779Z,11.65
2023-03-06T16:10:26.855Z,11.57
2023-03-06T16:13:02.633Z,11.48
2023-03-06T16:15:33.346Z,11.47
2023-03-06T16:18:00.444Z,11.39
2023-03-06T16:20:29.399Z,11.35
2023-03-06T16:22:56.935Z,11.30
2023-03-06T16:25:26.858Z,11.31
2023-03-06T16:27:59.820Z,11.02
2023-03-06T16:30:32.401Z,10.95
2023-03-06T16:33:00.189Z,10.94
2023-03-06T16:35:27.586Z,10.91
2023-03-06T16:37:54.780Z,10.86
2023-03-06T16:40:29.240Z,10.79
2023-03-06T16:42:56.946Z,10.69
2023-03-06T16:45:24.747Z,10.57
2023-03-06T16:47:52.467Z,10.47
2023-03-06T16:50:36.543Z,10.52
2023-03-06T16:53:04.353Z,10.44
2023-03-06T16:55:33.882Z,10.43
2023-03-06T16:58:00.939Z,10.34
2023-03-06T17:00:33.371Z,10.29
2023-03-06T17:03:01.850Z,10.27
2023-03-06T17:05:33.338Z,10.15
2023-03-06T17:08:00.508Z,9.95
2023-03-06T17:10:27.608Z,9.95
2023-03-06T17:12:55.987Z,9.83
2023-03-06T17:15:23.192Z,9.86
2023-03-06T17:17:51.834Z,9.76
2023-03-06T17:20:19.684Z,9.69
2023-03-06T17:22:46.745Z,9.72
2023-03-06T17:25:13.890Z,9.69
2023-03-06T17:27:41.044Z,9.70
2023-03-06T17:30:08.619Z,9.65
2023-03-06T17:32:37.809Z,9.71
2023-03-06T17:35:05.407Z,9.75
2023-03-06T17:37:32.542Z,9.67
2023-03-06T17:39:59.709Z,9.60
2023-03-06T17:42:26.820Z,9.53
2023-03-06T17:44:53.921Z,9.55
2023-03-06T17:47:20.914Z,9.57
2023-03-06T17:49:47.895Z,9.62
2023-03-06T17:52:14.997Z,9.64
2023-03-06T17:54:42.096Z,9.61
2023-03-06T17:57:09.167Z,9.61
2023-03-06T17:59:36.302Z,9.65
2023-03-06T18:02:03.996Z,9.65
2023-03-06T18:04:31.256Z,9.71
2023-03-06T18:06:58.576Z,9.44
2023-03-06T18:09:25.675Z,9.46
2023-03-06T18:11:53.031Z,9.49
2023-03-06T18:14:20.146Z,9.57
2023-03-06T18:16:47.422Z,9.55
2023-03-06T18:19:14.895Z,9.57
2023-03-06T18:21:42.108Z,9.58
2023-03-06T18:24:11.569Z,9.57
2023-03-06T18:26:42.564Z,9.57
2023-03-06T18:29:09.744Z,9.55
2023-03-06T18:31:39.414Z,9.55
2023-03-06T18:34:18.010Z,9.51
2023-03-06T18:36:47.698Z,9.48
2023-03-06T18:39:16.014Z,9.49
2023-03-06T18:41:43.251Z,9.52
2023-03-06T18:44:14.795Z,9.56
2023-03-06T18:46:42.294Z,9.53
2023-03-06T18:49:10.565Z,9.43
2023-03-06T18:51:37.685Z,9.30
2023-03-06T18:54:06.629Z,9.27
2023-03-06T18:56:34.308Z,9.21
2023-03-06T18:59:06.763Z,9.06
2023-03-06T19:01:34.470Z,9.05
2023-03-06T19:04:03.519Z,9.03
2023-03-06T19:06:33.711Z,9.04
2023-03-06T19:09:02.444Z,9.13
2023-03-06T19:11:30.039Z,9.15
2023-03-06T19:13:57.224Z,9.10
2023-03-06T19:16:27.856Z,9.10
2023-03-06T19:18:56.219Z,9.06
2023-03-06T19:21:26.377Z,9.05
2023-03-06T19:23:53.996Z,9.02
2023-03-06T19:26:21.202Z,8.98
2023-03-06T19:28:48.634Z,8.93
2023-03-06T19:31:20.328Z,8.83
2023-03-06T19:33:49.382Z,8.73
2023-03-06T19:36:17.475Z,8.62
2023-03-06T19:38:44.543Z,8.51
2023-03-06T19:41:13.828Z,8.58
2023-03-06T19:43:44.038Z,8.56
2023-03-06T19:46:13.160Z,8.51
2023-03-06T19:48:41.382Z,8.48
2023-03-06T19:51:09.109Z,8.42
2023-03-06T19:53:36.929Z,8.30
2023-03-06T19:56:05.074Z,8.30
2023-03-06T19:58:32.147Z,8.27
2023-03-06T20:01:25.354Z,8.28
2023-03-06T20:03:59.860Z,8.24
2023-03-06T20:06:37.764Z,8.13
2023-03-06T20:09:08.326Z,8.03
2023-03-06T20:11:39.101Z,7.99
2023-03-06T20:14:08.123Z,7.84
2023-03-06T20:16:36.070Z,7.85
2023-03-06T20:19:03.834Z,7.73
2023-03-06T20:21:35.591Z,7.66
2023-03-06T20:24:08.098Z,7.71
2023-03-06T20:26:36.936Z,7.60
2023-03-06T20:29:04.300Z,7.62
2023-03-06T20:31:31.564Z,7.60
2023-03-06T20:33:59.901Z,7.56
2023-03-06T20:36:29.960Z,7.55
2023-03-06T20:39:00.320Z,7.51
2023-03-06T20:41:29.313Z,7.42
2023-03-06T20:43:58.534Z,7.43
2023-03-06T20:46:29.159Z,7.41
2023-03-06T20:48:58.251Z,7.36
2023-03-06T20:51:28.921Z,7.34
2023-03-06T20:53:56.618Z,7.34
2023-03-06T20:56:26.803Z,7.26
2023-03-06T20:58:54.364Z,7.40
2023-03-06T21:01:29.488Z,7.32
2023-03-06T21:03:57.974Z,7.38
2023-03-06T21:06:26.827Z,7.40
2023-03-06T21:08:54.810Z,7.38
2023-03-06T21:11:22.321Z,7.27
2023-03-06T21:13:49.721Z,7.15
2023-03-06T21:16:19.542Z,7.20
2023-03-06T21:18:47.912Z,7.05
2023-03-06T21:21:18.660Z,7.04
2023-03-06T21:23:47.372Z,7.14
2023-03-06T21:26:17.469Z,7.12
2023-03-06T21:28:44.731Z,7.08
2023-03-06T21:31:13.575Z,7.03
2023-03-06T21:33:41.067Z,7.13
2023-03-06T21:36:09.202Z,7.12
2023-03-06T21:38:36.656Z,7.16
2023-03-06T21:41:15.934Z,7.20
2023-03-06T21:43:43.719Z,7.14
2023-03-06T21:46:11.737Z,7.19
2023-03-06T21:48:42.428Z,7.10
2023-03-06T21:51:13.367Z,7.13
2023-03-06T21:53:47.767Z,7.11
2023-03-06T21:56:17.965Z,7.14
2023-03-06T21:58:46.092Z,7.11
2023-03-06T22:01:22.894Z,7.10
2023-03-06T22:03:50.785Z,7.11
2023-03-06T22:06:27.997Z,6.98
2023-03-06T22:08:56.690Z,6.88
2023-03-06T22:11:25.335Z,6.90
2023-03-06T22:13:55.876Z,6.56
2023-03-06T22:16:23.431Z,6.40
2023-03-06T22:18:52.028Z,6.28
2023-03-06T22:21:21.949Z,6.48
2023-03-06T22:23:54.189Z,6.64
2023-03-06T22:26:21.849Z,6.96
2023-03-06T22:28:49.345Z,6.93
2023-03-06T22:31:24.428Z,6.81
2023-03-06T22:33:53.295Z,6.58
2023-03-06T22:36:21.623Z,6.39
2023-03-06T22:38:49.765Z,6.50
2023-03-06T22:41:17.696Z,6.28
2023-03-06T22:43:45.043Z,5.98
2023-03-06T22:46:15.138Z,6.13
2023-03-06T22:48:42.756Z,6.41
2023-03-06T22:51:12.713Z,6.06
2023-03-06T22:53:40.665Z,6.04
2023-03-06T22:56:11.021Z,6.20
2023-03-06T22:58:38.865Z,6.50
2023-03-06T23:01:12.622Z,5.87
2023-03-06T23:03:42.889Z,5.91
2023-03-06T23:06:12.827Z,6.02
2023-03-06T23:08:40.865Z,5.99
2023-03-06T23:11:13.832Z,6.02
2023-03-06T23:13:59.749Z,6.02
2023-03-06T23:16:46.210Z,5.94
2023-03-06T23:19:31.997Z,5.97
2023-03-06T23:22:18.803Z,5.80
2023-03-06T23:25:04.684Z,5.77
2023-03-06T23:27:32.410Z,5.63
2023-03-06T23:29:59.938Z,5.54
2023-03-06T23:32:27.002Z,6.27
2023-03-06T23:34:54.741Z,6.04
2023-03-06T23:37:21.698Z,5.70
2023-03-06T23:39:49.055Z,5.90
2023-03-06T23:42:16.378Z,6.17
2023-03-06T23:44:43.910Z,5.88
2023-03-06T23:47:10.891Z,5.94
2023-03-06T23:49:40.178Z,5.93
2023-03-06T23:52:07.228Z,6.08
2023-03-06T23:54:34.603Z,6.03
2023-03-06T23:57:01.675Z,5.67
2023-03-06T23:59:28.799Z,5.68
